Station: Delamere  

  Atmospheric Gas Attenuation - ITU Rec 676-11   ----------------- dB/100km -----------------
Date Time Temp RH % AH g/m3 Dew Point Wind Direction Speed kph Gust kph Barometer mB Rainfall Since 9am 24GHz 47GHz 76GHz 122GHz 134GHz 241GHz
05/05 13:30 30.2 49 15.02 18.3 17 26 1011.8 0 32.1 30.9 55.5 146.5 155.4 539.8
05/05 13:20 30.9 48 15.28 18.6 20 24 1011.8 0 32.6 31.1 56.0 147.9 157.4 546.7
05/05 13:10 30.3 49 15.11 18.4 20 24 1012 0 32.3 31.0 55.7 147.2 156.4 543.2
05/05 13:00 30 49 14.86 18.4 17 24 1012.2 0 31.8 30.7 55.0 145.2 153.8 534.1
05/05 12:50 30.4 50 15.5 19.1 20 24 1012.3 0 33.1 31.6 57.2 151.2 161.3 560.3
05/05 12:40 29.4 52 15.27 18.5 9 9 1012.4 0 32.7 31.6 57.0 150.7 160.4 556.9
05/05 12:30 29.8 51 15.3 18.6 17 22 1012.6 0 32.7 31.5 56.9 150.3 159.9 555.6
05/05 12:20 29.5 54 15.94 19.2 13 17 1012.7 0 34.1 32.7 59.7 157.7 169.1 587.3
05/05 12:10 29.1 52 15.02 18.5 13 15 1012.9 0 32.2 31.3 56.3 148.6 157.7 547.8
05/05 12:00 29.6 52 15.43 18.7 15 22 1013.1 0 33.0 31.8 57.6 152.1 162.1 563.1
05/05 11:50 28.7 54 15.26 18.5 19 26 1013.2 0 32.7 31.9 57.6 152.0 161.8 561.8
05/05 11:40 28.3 55 15.21 18.4 17 22 1013.3 0 32.7 32.0 57.7 152.3 162.0 562.4
05/05 11:30 28.4 56 15.57 18.8 17 24 1013.5 0 33.4 32.5 59.1 156.0 166.6 578.5
05/05 11:20 27.7 56 14.98 18.1 17 20 1013.7 0 32.2 31.8 57.2 151.0 160.2 556.1
05/05 11:10 27.3 58 15.18 18.3 17 20 1013.8 0 32.7 32.3 58.3 154.0 163.7 568.4
05/05 11:00 27.5 58 15.35 18.5 17 24 1013.9 0 33.0 32.5 58.9 155.4 165.6 575.0
05/05 10:50 27.2 56 14.57 17.9 19 24 1014 0 31.4 31.3 55.9 147.5 155.8 540.7
05/05 10:40 26.7 59 14.93 18 17 20 1014 0 32.2 32.1 57.7 152.4 161.6 561.1
05/05 10:30 26.7 60 15.19 18.3 19 26 1014.2 0 32.7 32.5 58.8 155.3 165.2 573.5
05/05 10:20 26.3 61 15.1 18.2 15 20 1014.3 0 32.6 32.5 58.7 155.1 164.8 572.2
05/05 10:10 26.3 61 15.1 18.4 13 19 1014.3 0 32.6 32.5 58.7 155.1 164.8 572.2
05/05 10:00 25.7 62 14.84 17.9 15 26 1014.2 0 32.1 32.3 58.1 153.4 162.5 564.1
05/05 09:50 25.9 64 15.49 18.6 15 17 1014.2 0 33.4 33.4 60.7 160.3 171.1 593.9
05/05 09:40 25.4 64 15.07 18.1 17 20 1014.1 0 32.6 32.8 59.3 156.5 166.3 577.3
05/05 09:30 24.6 66 14.85 17.8 19 28 1014.1 0 32.2 32.8 59.0 155.7 165.0 572.6
05/05 09:20 24.5 67 14.99 18 17 20 1014 0 32.5 33.0 59.6 157.4 167.2 580.1
05/05 09:10 24.3 68 15.05 18.2 17 19 1013.8 0 32.6 33.2 60.0 158.5 168.4 584.4
05/05 09:00 24 69 15.01 18 17 22 1013.8 0 32.6 33.2 60.1 158.7 168.5 584.7
05/05 08:50 23.2 72 14.97 17.9 19 20 1013.8 0 32.6 33.5 60.5 159.8 169.7 588.9
05/05 08:40 23.1 73 15.09 18 17 19 1013.7 0 32.8 33.7 61.1 161.4 171.7 595.6
05/05 08:30 22.5 75 14.98 17.8 17 24 1013.6 0 32.6 33.8 61.1 161.4 171.4 594.7
05/05 08:20 22.5 76 15.18 18.1 17 20 1013.5 0 33.1 34.1 62.0 163.7 174.3 604.7
05/05 08:10 21.8 78 14.96 17.8 22 24 1013.4 0 32.7 34.0 61.6 162.6 172.7 599.0
05/05 08:00 21.7 79 15.07 17.9 15 24 1013.3 0 32.9 34.2 62.1 164.1 174.5 605.3
05/05 07:50 21.2 81 15.01 17.8 17 22 1013.2 0 32.8 34.3 62.3 164.4 174.8 606.2
05/05 07:40 21.1 81 14.92 17.7 17 20 1013.2 0 32.6 34.2 61.9 163.6 173.7 602.4
05/05 07:30 20.9 82 14.93 17.7 11 17 1013.1 0 32.7 34.3 62.2 164.1 174.3 604.4
05/05 07:20 20.6 83 14.85 17.6 7 9 1013 0 32.5 34.3 62.0 163.8 173.8 602.7
05/05 07:10 20.3 84 14.77 17.5 9 11 1012.9 0 32.4 34.2 61.9 163.5 173.3 600.9
05/05 07:00 20.2 84 14.69 17.4 9 15 1012.9 0 32.2 34.1 61.6 162.7 172.3 597.6
05/05 06:50 20.4 83 14.68 17.4 11 13 1012.7 0 32.2 34.0 61.4 162.1 171.7 595.4
05/05 06:40 20.5 82 14.59 17.3 11 13 1012.5 0 32.0 33.8 60.9 160.8 170.1 589.9
05/05 06:30 20.6 82 14.67 17.4 13 17 1012.4 0 32.1 33.9 61.2 161.6 171.1 593.2
05/05 06:20 20.8 81 14.67 17.4 11 15 1012.3 0 32.1 33.8 61.0 161.1 170.6 591.6
05/05 06:10 20.8 80 14.48 17.2 9 15 1012.3 0 31.7 33.5 60.2 158.9 167.9 582.0
05/05 06:00 20.9 80 14.57 17.3 13 20 1012.1 0 31.9 33.6 60.5 159.7 168.9 585.7
05/05 05:50 21 80 14.65 17.4 15 17 1012.1 0 32.1 33.7 60.8 160.4 169.8 589.0
05/05 05:40 21.1 80 14.74 17.5 9 13 1012.1 0 32.2 33.8 61.1 161.3 170.9 592.8
05/05 05:30 21.2 79 14.64 17.4 13 17 1012 0 32.0 33.6 60.6 159.9 169.2 586.9
05/05 05:20 21.4 78 14.62 17.4 11 15 1011.9 0 32.0 33.5 60.3 159.2 168.5 584.3
05/05 05:10 21.5 78 14.71 17.5 11 13 1011.8 0 32.2 33.6 60.6 160.1 169.6 588.0
05/05 05:00 21.6 78 14.79 17.6 11 20 1011.8 0 32.3 33.7 60.9 160.8 170.5 591.3
05/05 04:50 21.7 78 14.88 17.7 15 17 1011.7 0 32.5 33.8 61.2 161.6 171.6 595.0
05/05 04:40 21.8 77 14.77 17.6 13 17 1011.8 0 32.3 33.6 60.6 160.2 169.8 588.7
05/05 04:30 21.9 77 14.86 17.7 15 20 1011.8 0 32.4 33.7 61.0 161.0 170.8 592.5
05/05 04:20 21.8 78 14.96 17.8 17 20 1011.8 0 32.7 33.9 61.5 162.4 172.5 598.3
05/05 04:10 21.9 78 15.05 17.9 13 17 1011.9 0 32.8 34.1 61.8 163.2 173.6 602.1
05/05 04:00 22 78 15.14 18 11 15 1011.8 0 33.0 34.2 62.1 164.1 174.7 605.8
05/05 03:50 22.2 77 15.12 18 13 15 1011.9 0 33.0 34.1 61.9 163.4 173.9 603.3
05/05 03:40 22.3 77 15.2 18.1 13 15 1011.9 0 33.1 34.2 62.2 164.2 174.8 606.5
05/05 03:30 22.4 76 15.09 18 13 17 1011.8 0 32.9 33.9 61.6 162.6 173.0 600.2
05/05 03:20 22.6 75 15.07 17.9 13 15 1011.9 0 32.8 33.8 61.3 162.0 172.3 597.7
05/05 03:10 22.7 74 14.95 17.8 13 15 1011.9 0 32.6 33.6 60.7 160.4 170.3 590.9
05/05 03:00 22.9 74 15.12 18 13 19 1011.7 0 32.9 33.8 61.3 161.9 172.3 597.7
05/05 02:50 23.1 73 15.09 18 17 19 1011.8 0 32.8 33.7 61.0 161.2 171.4 594.7
05/05 02:40 23.1 73 15.09 18 11 13 1012 0 32.8 33.7 61.0 161.2 171.4 594.8
05/05 02:30 23.2 72 14.97 17.9 13 22 1012.1 0 32.6 33.4 60.4 159.6 169.5 588.1
05/05 02:20 23.4 71 14.93 17.8 13 15 1012.1 0 32.5 33.3 60.1 158.7 168.5 584.6
05/05 02:10 23.5 71 15.01 17.9 13 15 1012.2 0 32.6 33.4 60.4 159.5 169.4 587.9
05/05 02:00 23.6 70 14.89 17.8 13 20 1012.3 0 32.4 33.1 59.8 157.9 167.5 581.2
05/05 01:50 23.7 70 14.97 17.9 11 13 1012.5 0 32.5 33.2 60.1 158.6 168.5 584.5
05/05 01:40 23.9 69 14.93 17.9 13 17 1012.5 0 32.4 33.1 59.7 157.8 167.5 581.0
05/05 01:30 24 69 15.01 18 15 22 1012.6 0 32.6 33.2 60.0 158.5 168.4 584.2
05/05 01:20 24.1 69 15.1 18.1 15 17 1012.7 0 32.8 33.3 60.3 159.3 169.4 587.9
05/05 01:10 24.2 68 14.96 17.9 17 20 1012.8 0 32.5 33.0 59.7 157.5 167.3 580.4
05/05 01:00 24.2 68 14.96 17.9 13 17 1012.8 0 32.5 33.0 59.7 157.5 167.3 580.4
05/05 00:50 24.4 67 14.91 17.9 11 13 1013.1 0 32.3 32.9 59.3 156.6 166.2 576.6
05/05 00:40 24.4 68 15.13 18.1 11 15 1013.2 0 32.8 33.3 60.3 159.1 169.3 587.3
05/05 00:30 24.6 67 15.08 18.1 13 15 1013.2 0 32.7 33.1 59.9 158.2 168.1 583.4
05/05 00:20 24.5 68 15.22 18.2 11 11 1013.3 0 33.0 33.4 60.6 160.0 170.3 591.0
05/05 00:10 24.5 68 15.22 18.2 9 11 1013.3 0 33.0 33.4 60.6 160.0 170.3 591.0
05/05 00:00 24.7 68 15.39 18.4 9 11 1013.3 0 33.3 33.6 61.1 161.5 172.3 597.8
04/05 23:50 24.9 66 15.11 18.3 9 9 1013.5 0 32.7 33.1 59.8 157.9 167.9 582.7
04/05 23:40 25.3 64 14.98 18.2 15 17 1013.5 0 32.4 32.7 58.9 155.7 165.2 573.4
04/05 23:30 25.4 64 15.07 18.3 11 15 1013.2 0 32.6 32.8 59.2 156.4 166.2 576.9
04/05 23:20 25.6 64 15.24 18.3 11 15 1013.2 0 32.9 33.0 59.8 157.9 168.1 583.6
04/05 23:10 25.8 64 15.41 18.5 13 17 1013.2 0 33.3 33.2 60.4 159.4 170.1 590.3
04/05 23:00 25.9 64 15.49 18.6 13 19 1013.2 0 33.4 33.3 60.6 160.1 170.9 593.4
04/05 22:50 26.1 64 15.67 18.8 15 20 1013.2 0 33.8 33.5 61.2 161.8 173.0 600.6
04/05 22:40 26.3 63 15.6 18.7 13 13 1013.2 0 33.6 33.4 60.8 160.6 171.6 595.7
04/05 22:30 26.6 62 15.61 18.7 15 19 1012.8 0 33.6 33.2 60.6 160.0 171.0 593.7
04/05 22:20 26.7 62 15.69 18.8 15 19 1012.7 0 33.8 33.3 60.8 160.7 171.9 596.7
04/05 22:10 26.8 62 15.78 18.9 15 19 1012.8 0 34.0 33.4 61.1 161.5 172.9 600.3
04/05 22:00 26.8 63 16.04 19.2 15 20 1013.1 0 34.5 33.9 62.2 164.5 176.5 613.0
04/05 21:50 27 62 15.96 19.1 15 17 1013.1 0 34.3 33.7 61.7 163.1 175.0 607.6
04/05 21:40 27.4 61 16.05 19.2 17 22 1013.2 0 34.5 33.7 61.8 163.3 175.3 608.8
04/05 21:30 27.7 59 15.78 19 13 20 1013 0 33.9 33.1 60.4 159.7 170.9 593.5
04/05 21:20 28 58 15.77 19.2 11 13 1013 0 33.9 33.0 60.2 159.0 170.1 590.8
04/05 21:10 27.9 58 15.69 19.1 11 13 1012.9 0 33.7 32.9 59.9 158.3 169.2 587.7
04/05 21:00 27.7 60 16.05 19.2 9 11 1013 0 34.5 33.6 61.6 162.7 174.6 606.4

Last Refresh: 05-May-2026 13:37:52

Bureau of Meteorology